createdAt,value
2023-04-06T00:00:18.504Z,-0.10
2023-04-06T00:01:18.511Z,-0.14
2023-04-06T00:02:18.478Z,-0.17
2023-04-06T00:03:18.506Z,-0.14
2023-04-06T00:04:18.433Z,-0.13
2023-04-06T00:05:18.438Z,-0.18
2023-04-06T00:06:18.408Z,-0.21
2023-04-06T00:07:18.395Z,-0.21
2023-04-06T00:08:18.386Z,-0.25
2023-04-06T00:09:18.375Z,-0.18
2023-04-06T00:10:18.377Z,-0.18
2023-04-06T00:11:18.375Z,-0.17
2023-04-06T00:12:18.342Z,-0.21
2023-04-06T00:13:18.335Z,-0.18
2023-04-06T00:14:18.320Z,-0.21
2023-04-06T00:15:18.307Z,-0.21
2023-04-06T00:16:18.302Z,-0.23
2023-04-06T00:17:18.311Z,-0.23
2023-04-06T00:18:18.264Z,-0.25
2023-04-06T00:19:18.245Z,-0.23
2023-04-06T00:20:18.250Z,-0.23
2023-04-06T00:21:18.218Z,-0.26
2023-04-06T00:22:18.235Z,-0.20
2023-04-06T00:23:18.204Z,-0.23
2023-04-06T00:24:18.184Z,-0.14
2023-04-06T00:25:18.191Z,-0.21
2023-04-06T00:26:18.154Z,-0.13
2023-04-06T00:27:18.143Z,-0.14
2023-04-06T00:28:18.151Z,-0.15
2023-04-06T00:29:18.137Z,-0.08
2023-04-06T00:30:18.133Z,-0.15
2023-04-06T00:31:18.098Z,-0.15
2023-04-06T00:32:18.222Z,-0.11
2023-04-06T00:33:18.122Z,-0.14
2023-04-06T00:34:18.065Z,-0.17
2023-04-06T00:35:18.053Z,-0.17
2023-04-06T00:36:18.094Z,-0.21
2023-04-06T00:37:18.027Z,-0.28
2023-04-06T00:38:18.004Z,-0.28
2023-04-06T00:39:19.726Z,-0.25
2023-04-06T00:40:17.986Z,-0.36
2023-04-06T00:41:17.977Z,-0.36
2023-04-06T00:42:17.952Z,-0.35
2023-04-06T00:43:17.950Z,-0.39
2023-04-06T00:44:17.940Z,-0.36
2023-04-06T00:45:17.943Z,-0.38
2023-04-06T00:46:17.923Z,-0.36
2023-04-06T00:47:17.892Z,-0.39
2023-04-06T00:48:17.878Z,-0.38
2023-04-06T00:49:17.896Z,-0.38
2023-04-06T00:50:17.860Z,-0.39
2023-04-06T00:51:17.863Z,-0.47
2023-04-06T00:52:17.824Z,-0.47
2023-04-06T00:53:17.819Z,-0.52
2023-04-06T00:54:17.808Z,-0.53
2023-04-06T00:55:17.795Z,-0.64
2023-04-06T00:56:17.789Z,-0.62
2023-04-06T00:57:17.780Z,-0.67
2023-04-06T00:58:17.760Z,-0.72
2023-04-06T00:59:17.800Z,-0.71
2023-04-06T01:00:17.729Z,-0.67
2023-04-06T01:01:17.768Z,-0.67
2023-04-06T01:02:17.717Z,-0.72
2023-04-06T01:03:17.684Z,-0.72
2023-04-06T01:04:17.680Z,-0.74
2023-04-06T01:05:17.733Z,-0.78
2023-04-06T01:06:17.644Z,-0.74
2023-04-06T01:07:17.646Z,-0.83
2023-04-06T01:08:17.629Z,-0.77
2023-04-06T01:09:17.616Z,-0.70
2023-04-06T01:10:17.600Z,-0.72
2023-04-06T01:11:17.578Z,-0.75
2023-04-06T01:12:17.568Z,-0.74
2023-04-06T01:13:17.571Z,-0.77
2023-04-06T01:14:17.546Z,-0.80
2023-04-06T01:15:17.544Z,-0.80
2023-04-06T01:16:17.569Z,-0.75
2023-04-06T01:17:17.517Z,-0.77
2023-04-06T01:18:17.510Z,-0.75
2023-04-06T01:19:17.478Z,-0.70
2023-04-06T01:20:17.464Z,-0.70
2023-04-06T01:21:17.491Z,-0.74
2023-04-06T01:22:17.452Z,-0.77
2023-04-06T01:23:17.433Z,-0.83
2023-04-06T01:24:17.450Z,-0.82
2023-04-06T01:25:17.397Z,-0.85
2023-04-06T01:26:17.384Z,-0.83
2023-04-06T01:27:17.382Z,-0.82
2023-04-06T01:28:17.369Z,-0.89
2023-04-06T01:29:17.358Z,-0.91
2023-04-06T01:30:17.342Z,-0.97
2023-04-06T01:31:17.350Z,-0.94
2023-04-06T01:32:17.305Z,-0.99
2023-04-06T01:33:17.297Z,-1.05
2023-04-06T01:34:17.299Z,-1.09
2023-04-06T01:35:17.314Z,-1.02
2023-04-06T01:36:17.268Z,-1.08
2023-04-06T01:37:17.274Z,-1.05
2023-04-06T01:38:17.233Z,-1.15
2023-04-06T01:39:17.223Z,-1.12
2023-04-06T01:40:17.219Z,-1.11
2023-04-06T01:41:17.186Z,-1.07
2023-04-06T01:42:17.173Z,-1.04
2023-04-06T01:43:17.168Z,-1.05
2023-04-06T01:44:17.154Z,-0.99
2023-04-06T01:45:17.138Z,-0.97
2023-04-06T01:46:17.165Z,-1.04
2023-04-06T01:47:17.118Z,-1.07
2023-04-06T01:48:17.110Z,-1.07
2023-04-06T01:49:17.082Z,-0.96
2023-04-06T01:50:17.069Z,-1.02
2023-04-06T01:51:17.067Z,-1.08
2023-04-06T01:52:17.049Z,-1.12
2023-04-06T01:53:17.050Z,-1.14
2023-04-06T01:54:17.011Z,-1.26
2023-04-06T01:55:16.995Z,-1.29
2023-04-06T01:56:16.987Z,-1.29
2023-04-06T01:57:16.980Z,-1.33
2023-04-06T01:58:16.970Z,-1.40
2023-04-06T01:59:16.974Z,-1.33
2023-04-06T02:00:16.951Z,-1.38
2023-04-06T02:01:16.975Z,-1.35
2023-04-06T02:02:16.997Z,-1.30
2023-04-06T02:03:16.934Z,-1.25
2023-04-06T02:04:16.882Z,-1.23
2023-04-06T02:05:16.871Z,-1.19
2023-04-06T02:06:16.872Z,-1.20
2023-04-06T02:07:16.841Z,-1.17
2023-04-06T02:08:16.841Z,-1.22
2023-04-06T02:09:16.852Z,-1.12
2023-04-06T02:10:16.815Z,-1.11
2023-04-06T02:11:16.795Z,-1.15
2023-04-06T02:12:16.785Z,-1.20
2023-04-06T02:13:16.782Z,-1.25
2023-04-06T02:14:16.757Z,-1.19
2023-04-06T02:15:16.736Z,-1.15
2023-04-06T02:16:16.827Z,-1.11
2023-04-06T02:17:16.706Z,-1.12
2023-04-06T02:18:16.704Z,-1.09
2023-04-06T02:19:16.692Z,-1.14
2023-04-06T02:20:16.675Z,-1.12
2023-04-06T02:21:16.671Z,-1.23
2023-04-06T02:22:16.641Z,-1.23
2023-04-06T02:23:16.640Z,-1.27
2023-04-06T02:24:16.629Z,-1.27
2023-04-06T02:25:16.635Z,-1.30
2023-04-06T02:26:16.616Z,-1.32
2023-04-06T02:27:16.595Z,-1.33
2023-04-06T02:28:16.563Z,-1.29
2023-04-06T02:29:16.558Z,-1.23
2023-04-06T02:30:16.560Z,-1.25
2023-04-06T02:31:16.586Z,-1.17
2023-04-06T02:32:16.526Z,-1.12
2023-04-06T02:33:16.520Z,-1.27
2023-04-06T02:34:16.498Z,-1.29
2023-04-06T02:35:16.488Z,-1.37
2023-04-06T02:36:16.481Z,-1.27
2023-04-06T02:37:16.454Z,-1.26
2023-04-06T02:38:16.447Z,-1.23
2023-04-06T02:39:16.419Z,-1.25
2023-04-06T02:40:16.442Z,-1.26
2023-04-06T02:41:16.427Z,-1.27
2023-04-06T02:42:16.380Z,-1.26
2023-04-06T02:43:16.402Z,-1.23
2023-04-06T02:44:16.352Z,-1.29
2023-04-06T02:45:16.353Z,-1.30
2023-04-06T02:46:16.394Z,-1.37
2023-04-06T02:47:16.329Z,-1.38
2023-04-06T02:48:16.305Z,-1.37
2023-04-06T02:49:16.284Z,-1.35
2023-04-06T02:50:16.274Z,-1.43
2023-04-06T02:51:16.259Z,-1.44
2023-04-06T02:52:16.254Z,-1.47
2023-04-06T02:53:16.245Z,-1.41
2023-04-06T02:54:16.230Z,-1.48
2023-04-06T02:55:16.220Z,-1.43
2023-04-06T02:56:16.207Z,-1.44
2023-04-06T02:57:16.213Z,-1.53
2023-04-06T02:58:16.177Z,-1.51
2023-04-06T02:59:16.220Z,-1.56
2023-04-06T03:00:16.158Z,-1.51
2023-04-06T03:01:16.244Z,-1.59
2023-04-06T03:02:16.135Z,-1.51
2023-04-06T03:03:16.272Z,-1.53
2023-04-06T03:04:16.105Z,-1.58
2023-04-06T03:05:16.085Z,-1.50
2023-04-06T03:06:16.074Z,-1.54
2023-04-06T03:07:16.066Z,-1.56
2023-04-06T03:08:16.043Z,-1.56
2023-04-06T03:09:16.024Z,-1.56
2023-04-06T03:10:16.010Z,-1.66
2023-04-06T03:11:16.015Z,-1.64
2023-04-06T03:12:15.997Z,-1.59
2023-04-06T03:13:16.008Z,-1.58
2023-04-06T03:14:15.971Z,-1.59
2023-04-06T03:15:15.959Z,-1.56
2023-04-06T03:16:16.000Z,-1.56
2023-04-06T03:17:15.918Z,-1.51
2023-04-06T03:18:15.903Z,-1.61
2023-04-06T03:19:15.890Z,-1.61
2023-04-06T03:20:15.876Z,-1.65
2023-04-06T03:21:15.869Z,-1.65
2023-04-06T03:22:15.849Z,-1.69
2023-04-06T03:23:15.851Z,-1.72
2023-04-06T03:24:15.831Z,-1.76
2023-04-06T03:25:15.814Z,-1.79
2023-04-06T03:26:15.817Z,-1.84
2023-04-06T03:27:15.800Z,-1.80
2023-04-06T03:28:15.809Z,-1.87
2023-04-06T03:29:15.780Z,-1.80
2023-04-06T03:30:15.747Z,-1.82
2023-04-06T03:31:15.749Z,-1.84
2023-04-06T03:32:15.721Z,-1.79
2023-04-06T03:33:15.706Z,-1.84
2023-04-06T03:34:15.705Z,-1.84
2023-04-06T03:35:15.685Z,-1.82
2023-04-06T03:36:15.672Z,-1.86
2023-04-06T03:37:15.658Z,-1.80
2023-04-06T03:38:15.678Z,-1.80
2023-04-06T03:39:15.650Z,-1.77
2023-04-06T03:40:15.624Z,-1.82
2023-04-06T03:41:15.606Z,-1.90
2023-04-06T03:42:15.587Z,-1.98
2023-04-06T03:43:15.569Z,-2.02
2023-04-06T03:44:15.570Z,-2.02
2023-04-06T03:45:15.574Z,-1.97
2023-04-06T03:46:15.580Z,-1.94
2023-04-06T03:47:15.524Z,-1.95
2023-04-06T03:48:15.507Z,-1.94
2023-04-06T03:49:15.500Z,-1.97
2023-04-06T03:50:15.487Z,-1.98
2023-04-06T03:51:15.469Z,-2.02
2023-04-06T03:52:15.454Z,-2.00
2023-04-06T03:53:15.440Z,-2.00
2023-04-06T03:54:15.444Z,-2.01
2023-04-06T03:55:15.422Z,-2.01
2023-04-06T03:56:15.414Z,-1.98
2023-04-06T03:57:15.402Z,-1.90
2023-04-06T03:58:15.375Z,-2.02
2023-04-06T03:59:15.399Z,-2.07
2023-04-06T04:00:15.355Z,-2.04
2023-04-06T04:01:15.373Z,-2.08
2023-04-06T04:02:15.355Z,-2.02
2023-04-06T04:03:15.379Z,-2.10
2023-04-06T04:04:15.295Z,-2.10
2023-04-06T04:05:15.300Z,-2.10
2023-04-06T04:06:15.269Z,-2.05
2023-04-06T04:07:15.265Z,-2.08
2023-04-06T04:08:15.242Z,-2.08
2023-04-06T04:09:15.246Z,-2.08
2023-04-06T04:10:15.223Z,-2.13
2023-04-06T04:11:15.202Z,-2.07
2023-04-06T04:12:15.201Z,-2.15
2023-04-06T04:13:15.177Z,-2.12
2023-04-06T04:14:15.162Z,-2.07
2023-04-06T04:15:15.173Z,-2.04
2023-04-06T04:16:15.206Z,-2.07
2023-04-06T04:17:15.150Z,-2.13
2023-04-06T04:18:15.127Z,-2.10
2023-04-06T04:19:15.108Z,-2.08
2023-04-06T04:20:15.104Z,-2.08
2023-04-06T04:21:15.069Z,-2.16
2023-04-06T04:22:15.078Z,-2.13
2023-04-06T04:23:15.059Z,-2.15
2023-04-06T04:24:15.043Z,-2.04
2023-04-06T04:25:15.028Z,-2.05
2023-04-06T04:26:15.043Z,-2.08
2023-04-06T04:27:15.006Z,-2.04
2023-04-06T04:28:14.993Z,-2.02
2023-04-06T04:29:14.981Z,-2.01
2023-04-06T04:30:14.997Z,-2.04
2023-04-06T04:31:14.941Z,-2.02
2023-04-06T04:32:15.072Z,-1.98
2023-04-06T04:33:14.945Z,-2.04
2023-04-06T04:34:14.909Z,-2.07
2023-04-06T04:35:14.904Z,-2.13
2023-04-06T04:36:14.892Z,-2.07
2023-04-06T04:37:14.877Z,-2.05
2023-04-06T04:38:14.866Z,-2.01
2023-04-06T04:39:14.864Z,-1.94
2023-04-06T04:40:14.833Z,-1.97
2023-04-06T04:41:14.822Z,-2.01
2023-04-06T04:42:14.814Z,-2.10
2023-04-06T04:43:14.807Z,-2.12
2023-04-06T04:44:14.796Z,-2.18
2023-04-06T04:45:14.779Z,-2.22
2023-04-06T04:46:14.913Z,-2.22
2023-04-06T04:47:14.745Z,-2.19
2023-04-06T04:48:14.740Z,-2.19
2023-04-06T04:49:14.755Z,-2.22
2023-04-06T04:50:14.704Z,-2.18
2023-04-06T04:51:14.713Z,-2.22
2023-04-06T04:52:14.682Z,-2.18
2023-04-06T04:53:14.683Z,-2.16
2023-04-06T04:54:14.662Z,-2.13
2023-04-06T04:55:14.642Z,-2.15
2023-04-06T04:56:14.637Z,-2.13
2023-04-06T04:57:14.621Z,-2.02
2023-04-06T04:58:14.612Z,-2.05
2023-04-06T04:59:14.622Z,-2.02
2023-04-06T05:00:14.603Z,-2.00
2023-04-06T05:01:14.597Z,-2.05
2023-04-06T05:02:14.631Z,-2.01
2023-04-06T05:03:14.683Z,-2.07
2023-04-06T05:04:14.528Z,-2.07
2023-04-06T05:05:14.555Z,-2.04
2023-04-06T05:06:14.523Z,-2.05
2023-04-06T05:07:14.489Z,-1.97
2023-04-06T05:08:14.483Z,-1.95
2023-04-06T05:09:14.467Z,-1.94
2023-04-06T05:10:14.457Z,-1.92
2023-04-06T05:11:14.445Z,-1.90
2023-04-06T05:12:14.442Z,-1.90
2023-04-06T05:13:14.422Z,-1.95
2023-04-06T05:14:14.404Z,-1.92
2023-04-06T05:15:14.402Z,-1.92
2023-04-06T05:16:14.416Z,-1.92
2023-04-06T05:17:14.369Z,-1.84
2023-04-06T05:18:14.356Z,-1.84
2023-04-06T05:19:14.345Z,-1.79
2023-04-06T05:20:14.330Z,-1.79
2023-04-06T05:21:14.354Z,-1.77
2023-04-06T05:22:14.295Z,-1.84
2023-04-06T05:23:14.280Z,-1.80
2023-04-06T05:24:14.282Z,-1.83
2023-04-06T05:25:14.264Z,-1.86
2023-04-06T05:26:14.254Z,-1.86
2023-04-06T05:27:14.240Z,-1.83
2023-04-06T05:28:14.227Z,-1.83
2023-04-06T05:29:14.216Z,-1.87
2023-04-06T05:30:14.214Z,-1.77
2023-04-06T05:31:14.253Z,-1.80
2023-04-06T05:32:14.178Z,-1.80
2023-04-06T05:33:14.246Z,-1.77
2023-04-06T05:34:14.154Z,-1.76
2023-04-06T05:35:14.134Z,-1.76
2023-04-06T05:36:15.151Z,-1.79
2023-04-06T05:37:14.126Z,-1.77
2023-04-06T05:38:14.097Z,-1.76
2023-04-06T05:39:14.073Z,-1.72
2023-04-06T05:40:14.063Z,-1.71
2023-04-06T05:41:14.063Z,-1.66
2023-04-06T05:42:14.037Z,-1.59
2023-04-06T05:43:14.018Z,-1.58
2023-04-06T05:44:14.009Z,-1.51
2023-04-06T05:45:13.990Z,-1.51
2023-04-06T05:46:13.991Z,-1.51
2023-04-06T05:47:13.964Z,-1.44
2023-04-06T05:48:14.092Z,-1.46
2023-04-06T05:49:13.951Z,-1.43
2023-04-06T05:50:13.932Z,-1.40
2023-04-06T05:51:13.917Z,-1.33
2023-04-06T05:52:13.905Z,-1.33
2023-04-06T05:53:14.040Z,-1.32
2023-04-06T05:54:13.874Z,-1.32
2023-04-06T05:55:13.879Z,-1.30
2023-04-06T05:56:13.848Z,-1.25
2023-04-06T05:57:13.839Z,-1.17
2023-04-06T05:58:13.820Z,-1.11
2023-04-06T05:59:13.842Z,-1.05
2023-04-06T06:00:13.809Z,-0.94
2023-04-06T06:01:13.784Z,-0.86
2023-04-06T06:02:13.844Z,-0.82
2023-04-06T06:03:13.824Z,-0.57
2023-04-06T06:04:13.748Z,0.25
2023-04-06T06:05:13.773Z,1.50
2023-04-06T06:06:13.712Z,2.65
2023-04-06T06:07:13.719Z,3.68
2023-04-06T06:08:13.696Z,4.48
2023-04-06T06:09:13.705Z,5.21
2023-04-06T06:10:13.679Z,5.79
2023-04-06T06:11:13.667Z,6.39
2023-04-06T06:12:14.732Z,6.87
2023-04-06T06:13:13.624Z,6.97
2023-04-06T06:14:13.609Z,7.53
2023-04-06T06:15:13.611Z,7.97
2023-04-06T06:16:13.610Z,8.15
2023-04-06T06:17:13.575Z,8.46
2023-04-06T06:18:13.646Z,8.79
2023-04-06T06:19:13.554Z,9.04
2023-04-06T06:20:13.536Z,9.31
2023-04-06T06:21:13.540Z,9.58
2023-04-06T06:22:13.504Z,9.87
2023-04-06T06:23:13.490Z,10.13
2023-04-06T06:24:13.492Z,10.40
2023-04-06T06:25:13.507Z,10.68
2023-04-06T06:26:13.451Z,10.89
2023-04-06T06:27:13.445Z,11.02
2023-04-06T06:28:13.440Z,11.11
2023-04-06T06:29:13.419Z,11.11
2023-04-06T06:30:13.410Z,10.90
2023-04-06T06:31:13.448Z,10.59
2023-04-06T06:32:13.387Z,10.76
2023-04-06T06:33:13.379Z,10.94
2023-04-06T06:34:13.356Z,11.02
2023-04-06T06:35:13.355Z,11.32
2023-04-06T06:36:13.339Z,11.57
2023-04-06T06:37:13.316Z,11.69
2023-04-06T06:38:13.301Z,11.88
2023-04-06T06:39:13.295Z,12.09
2023-04-06T06:40:13.308Z,12.27
2023-04-06T06:41:13.302Z,12.61
2023-04-06T06:42:14.610Z,13.01
2023-04-06T06:43:13.255Z,13.22
2023-04-06T06:44:13.224Z,13.31
2023-04-06T06:45:13.219Z,13.52
2023-04-06T06:46:13.539Z,13.62
2023-04-06T06:47:13.218Z,13.83
2023-04-06T06:48:13.264Z,13.93
2023-04-06T06:49:13.170Z,13.60
2023-04-06T06:50:13.195Z,13.71
2023-04-06T06:51:13.151Z,13.77
2023-04-06T06:52:13.149Z,13.62
2023-04-06T06:53:13.114Z,13.63
2023-04-06T06:54:13.101Z,13.75
2023-04-06T06:55:13.088Z,13.79
2023-04-06T06:56:13.074Z,13.72
2023-04-06T06:57:13.090Z,13.95
2023-04-06T06:58:13.044Z,14.05
2023-04-06T06:59:13.077Z,14.23
2023-04-06T07:00:13.681Z,14.28
2023-04-06T07:01:13.041Z,14.41
2023-04-06T07:02:12.999Z,14.63
2023-04-06T07:03:12.985Z,14.59
2023-04-06T07:04:12.997Z,14.65
2023-04-06T07:05:26.746Z,14.78
2023-04-06T07:06:13.960Z,14.81
2023-04-06T07:07:12.929Z,14.99
2023-04-06T07:08:12.910Z,15.22
2023-04-06T07:09:12.904Z,15.44
2023-04-06T07:10:12.878Z,15.42
2023-04-06T07:11:12.874Z,15.57
2023-04-06T07:12:12.896Z,15.72
2023-04-06T07:13:12.878Z,15.88
2023-04-06T07:14:12.831Z,15.77
2023-04-06T07:15:12.818Z,15.88
2023-04-06T07:16:12.822Z,15.79
2023-04-06T07:17:12.820Z,15.68
2023-04-06T07:18:12.818Z,15.68
2023-04-06T07:19:12.773Z,15.90
2023-04-06T07:20:12.778Z,16.05
2023-04-06T07:21:12.748Z,16.12
2023-04-06T07:22:12.721Z,16.26
2023-04-06T07:23:12.706Z,16.39
2023-04-06T07:24:12.722Z,16.42
2023-04-06T07:25:12.716Z,16.54
2023-04-06T07:26:12.707Z,16.61
2023-04-06T07:27:12.654Z,16.64
2023-04-06T07:28:12.671Z,16.61
2023-04-06T07:29:12.664Z,16.74
2023-04-06T07:30:12.627Z,16.99
2023-04-06T07:31:12.604Z,16.76
2023-04-06T07:32:12.889Z,16.68
2023-04-06T07:33:12.581Z,16.72
2023-04-06T07:34:12.570Z,16.72
2023-04-06T07:35:12.557Z,16.93
2023-04-06T07:36:12.546Z,17.20
2023-04-06T07:37:12.528Z,17.22
2023-04-06T07:38:12.522Z,17.46
2023-04-06T07:39:12.509Z,17.48
2023-04-06T07:40:12.504Z,17.39
2023-04-06T07:41:12.477Z,17.49
2023-04-06T07:42:12.465Z,17.78
2023-04-06T07:43:12.441Z,18.07
2023-04-06T07:44:12.453Z,18.19
2023-04-06T07:45:12.452Z,18.18
2023-04-06T07:46:12.485Z,18.23
2023-04-06T07:47:12.401Z,18.37
2023-04-06T07:48:12.377Z,18.49
2023-04-06T07:49:12.382Z,18.58
2023-04-06T07:50:12.370Z,18.56
2023-04-06T07:51:12.345Z,18.29
2023-04-06T07:52:12.335Z,18.40
2023-04-06T07:53:12.349Z,18.58
2023-04-06T07:54:12.300Z,18.78
2023-04-06T07:55:12.304Z,18.95
2023-04-06T07:56:12.280Z,19.18
2023-04-06T07:57:12.275Z,19.29
2023-04-06T07:58:12.284Z,19.44
2023-04-06T07:59:12.400Z,19.54
2023-04-06T08:00:12.237Z,19.44
2023-04-06T08:01:12.263Z,19.22
2023-04-06T08:02:12.248Z,19.16
2023-04-06T08:03:12.426Z,18.89
2023-04-06T08:04:12.670Z,18.65
2023-04-06T08:05:12.174Z,18.49
2023-04-06T08:06:12.161Z,18.22
2023-04-06T08:07:12.137Z,18.13
2023-04-06T08:08:12.128Z,17.94
2023-04-06T08:09:12.120Z,17.74
2023-04-06T08:10:12.129Z,17.63
2023-04-06T08:11:12.088Z,17.34
2023-04-06T08:12:12.079Z,16.79
2023-04-06T08:13:12.068Z,16.47
2023-04-06T08:14:12.047Z,16.28
2023-04-06T08:15:12.046Z,15.79
2023-04-06T08:16:12.046Z,15.65
2023-04-06T08:17:12.038Z,15.51
2023-04-06T08:18:12.002Z,15.21
2023-04-06T08:19:11.997Z,15.02
2023-04-06T08:20:11.972Z,14.94
2023-04-06T08:21:11.959Z,14.88
2023-04-06T08:22:11.965Z,14.84
2023-04-06T08:23:11.925Z,14.91
2023-04-06T08:24:11.921Z,14.84
2023-04-06T08:25:11.928Z,14.77
2023-04-06T08:26:11.896Z,14.89
2023-04-06T08:27:11.882Z,15.33
2023-04-06T08:28:11.860Z,15.64
2023-04-06T08:29:11.845Z,16.02
2023-04-06T08:30:11.845Z,16.38
2023-04-06T08:31:11.881Z,16.33
2023-04-06T08:32:11.814Z,16.54
2023-04-06T08:33:11.844Z,16.49
2023-04-06T08:34:14.113Z,16.33
2023-04-06T08:35:11.785Z,16.17
2023-04-06T08:36:11.764Z,15.91
2023-04-06T08:37:11.761Z,15.79
2023-04-06T08:38:11.737Z,15.76
2023-04-06T08:39:11.714Z,15.72
2023-04-06T08:40:11.718Z,15.64
2023-04-06T08:41:11.691Z,15.57
2023-04-06T08:42:11.690Z,15.31
2023-04-06T08:43:11.672Z,14.99
2023-04-06T08:44:11.670Z,14.81
2023-04-06T08:45:11.676Z,14.89
2023-04-06T08:46:11.750Z,14.96
2023-04-06T08:47:11.620Z,15.04
2023-04-06T08:48:11.646Z,15.06
2023-04-06T08:49:11.623Z,15.18
2023-04-06T08:50:11.571Z,15.11
2023-04-06T08:51:11.584Z,15.07
2023-04-06T08:52:11.565Z,15.10
2023-04-06T08:53:11.548Z,15.19
2023-04-06T08:54:11.532Z,15.15
2023-04-06T08:55:11.537Z,14.66
2023-04-06T08:56:11.505Z,14.17
2023-04-06T08:57:11.520Z,13.46
2023-04-06T08:58:11.596Z,13.18
2023-04-06T08:59:11.528Z,13.11
2023-04-06T09:00:11.505Z,13.08
2023-04-06T09:01:11.506Z,12.94
2023-04-06T09:02:11.561Z,13.00
2023-04-06T09:03:11.602Z,12.93
2023-04-06T09:04:12.023Z,12.61
2023-04-06T09:05:11.571Z,12.57
2023-04-06T09:06:11.375Z,12.55
2023-04-06T09:07:11.349Z,12.50
2023-04-06T09:08:11.344Z,12.47
2023-04-06T09:09:11.329Z,12.31
2023-04-06T09:10:11.320Z,12.17
2023-04-06T09:11:11.296Z,11.70
2023-04-06T09:12:11.283Z,11.47
2023-04-06T09:13:11.268Z,11.32
2023-04-06T09:14:11.268Z,11.17
2023-04-06T09:15:11.260Z,11.10
2023-04-06T09:16:11.293Z,10.87
2023-04-06T09:17:11.222Z,10.86
2023-04-06T09:18:11.210Z,11.10
2023-04-06T09:19:11.189Z,11.33
2023-04-06T09:20:11.181Z,11.37
2023-04-06T09:21:11.188Z,11.44
2023-04-06T09:22:11.165Z,11.59
2023-04-06T09:23:11.187Z,11.83
2023-04-06T09:24:11.565Z,12.12
2023-04-06T09:25:11.144Z,12.40
2023-04-06T09:26:11.099Z,12.67
2023-04-06T09:27:11.086Z,13.00
2023-04-06T09:28:11.089Z,13.09
2023-04-06T09:29:11.072Z,13.30
2023-04-06T09:30:11.050Z,13.60
2023-04-06T09:31:11.114Z,13.52
2023-04-06T09:32:11.026Z,13.53
2023-04-06T09:33:11.025Z,13.50
2023-04-06T09:34:11.170Z,13.60
2023-04-06T09:35:10.980Z,13.70
2023-04-06T09:36:10.979Z,13.83
2023-04-06T09:37:11.008Z,13.79
2023-04-06T09:38:10.968Z,13.57
2023-04-06T09:39:10.957Z,13.39
2023-04-06T09:40:10.928Z,13.12
2023-04-06T09:41:10.904Z,12.93
2023-04-06T09:42:10.894Z,12.57
2023-04-06T09:43:10.903Z,12.40
2023-04-06T09:44:11.115Z,12.18
2023-04-06T09:45:10.862Z,11.95
2023-04-06T09:46:10.853Z,11.80
2023-04-06T09:47:10.889Z,11.66
2023-04-06T09:48:10.841Z,11.54
2023-04-06T09:49:10.810Z,11.41
2023-04-06T09:50:10.792Z,11.19
2023-04-06T09:51:10.783Z,11.04
2023-04-06T09:52:10.771Z,11.04
2023-04-06T09:53:10.784Z,11.02
2023-04-06T09:54:10.734Z,10.93
2023-04-06T09:55:10.721Z,10.90
2023-04-06T09:56:10.720Z,10.84
2023-04-06T09:57:12.653Z,10.93
2023-04-06T09:58:10.702Z,10.97
2023-04-06T09:59:11.106Z,11.05
2023-04-06T10:00:10.718Z,11.14
2023-04-06T10:01:10.752Z,11.00
2023-04-06T10:02:10.628Z,10.81
2023-04-06T10:03:10.681Z,10.69
2023-04-06T10:04:11.027Z,10.37
2023-04-06T10:05:10.598Z,10.09
2023-04-06T10:06:10.581Z,10.09
2023-04-06T10:07:10.565Z,10.04
2023-04-06T10:08:10.554Z,10.02
2023-04-06T10:09:10.599Z,10.04
2023-04-06T10:10:10.559Z,10.12
2023-04-06T10:11:10.527Z,9.98
2023-04-06T10:12:10.509Z,10.04
2023-04-06T10:13:10.492Z,10.10
2023-04-06T10:14:10.626Z,9.95
2023-04-06T10:15:10.485Z,9.91
2023-04-06T10:16:10.465Z,9.97
2023-04-06T10:17:10.444Z,10.09
2023-04-06T10:18:10.506Z,10.22
2023-04-06T10:19:10.423Z,10.19
2023-04-06T10:20:10.407Z,10.26
2023-04-06T10:21:10.419Z,10.33
2023-04-06T10:22:10.375Z,10.33
2023-04-06T10:23:10.352Z,10.30
2023-04-06T10:24:10.463Z,10.25
2023-04-06T10:25:10.350Z,10.12
2023-04-06T10:26:10.321Z,9.82
2023-04-06T10:27:10.314Z,9.84
2023-04-06T10:28:10.313Z,9.79
2023-04-06T10:29:10.275Z,9.95
2023-04-06T10:30:10.291Z,10.04
2023-04-06T10:31:10.251Z,10.17
2023-04-06T10:32:10.354Z,10.17
2023-04-06T10:33:10.285Z,10.25
2023-04-06T10:34:10.342Z,10.33
2023-04-06T10:35:10.201Z,10.34
2023-04-06T10:36:10.229Z,10.10
2023-04-06T10:37:10.176Z,10.09
2023-04-06T10:38:10.166Z,9.99
2023-04-06T10:39:10.159Z,10.07
2023-04-06T10:40:10.154Z,10.10
2023-04-06T10:41:10.196Z,10.23
2023-04-06T10:42:10.121Z,10.34
2023-04-06T10:43:10.139Z,10.40
2023-04-06T10:44:10.210Z,10.35
2023-04-06T10:45:10.072Z,10.33
2023-04-06T10:46:10.099Z,10.20
2023-04-06T10:47:10.047Z,10.28
2023-04-06T10:48:10.038Z,10.30
2023-04-06T10:49:10.020Z,10.51
2023-04-06T10:50:10.017Z,10.69
2023-04-06T10:51:10.004Z,10.69
2023-04-06T10:52:09.979Z,10.74
2023-04-06T10:53:09.977Z,10.82
2023-04-06T10:54:09.965Z,10.90
2023-04-06T10:55:09.948Z,11.00
2023-04-06T10:56:09.930Z,11.02
2023-04-06T10:57:09.951Z,11.07
2023-04-06T10:58:09.897Z,11.12
2023-04-06T10:59:09.929Z,11.07
2023-04-06T11:00:12.168Z,11.02
2023-04-06T11:01:09.880Z,11.02
2023-04-06T11:02:09.858Z,11.04
2023-04-06T11:03:09.885Z,11.07
2023-04-06T11:04:09.834Z,10.92
2023-04-06T11:05:09.811Z,10.84
2023-04-06T11:06:09.799Z,10.78
2023-04-06T11:07:09.787Z,10.79
2023-04-06T11:08:09.765Z,10.79
2023-04-06T11:09:09.761Z,10.74
2023-04-06T11:10:14.522Z,10.56
2023-04-06T11:11:10.783Z,10.49
2023-04-06T11:12:09.726Z,10.48
2023-04-06T11:13:09.732Z,10.56
2023-04-06T11:14:09.686Z,10.49
2023-04-06T11:15:09.699Z,10.40
2023-04-06T11:16:09.662Z,10.54
2023-04-06T11:17:09.842Z,10.68
2023-04-06T11:18:09.663Z,10.76
2023-04-06T11:19:09.632Z,10.75
2023-04-06T11:20:09.606Z,10.87
2023-04-06T11:21:09.603Z,10.99
2023-04-06T11:22:09.584Z,11.11
2023-04-06T11:23:09.609Z,11.40
2023-04-06T11:24:09.562Z,11.54
2023-04-06T11:26:09.537Z,11.59
2023-04-06T11:27:09.524Z,11.62
2023-04-06T11:28:09.505Z,11.68
2023-04-06T11:29:09.517Z,11.69
2023-04-06T11:30:09.489Z,11.75
2023-04-06T11:31:09.500Z,11.81
2023-04-06T11:32:09.450Z,11.88
2023-04-06T11:33:09.445Z,11.91
2023-04-06T11:34:09.433Z,11.99
2023-04-06T11:35:09.418Z,12.00
2023-04-06T11:36:09.466Z,12.07
2023-04-06T11:37:09.389Z,12.02
2023-04-06T11:38:09.376Z,11.80
2023-04-06T11:39:09.370Z,11.62
2023-04-06T11:40:09.348Z,11.60
2023-04-06T11:41:09.337Z,11.54
2023-04-06T11:42:09.640Z,11.59
2023-04-06T11:43:09.308Z,11.55
2023-04-06T11:44:09.301Z,11.54
2023-04-06T11:45:09.320Z,11.52
2023-04-06T11:46:09.299Z,11.59
2023-04-06T11:47:09.266Z,11.52
2023-04-06T11:48:09.299Z,11.50
2023-04-06T11:49:09.276Z,11.48
2023-04-06T11:50:09.235Z,11.54
2023-04-06T11:51:09.209Z,11.62
2023-04-06T11:52:09.200Z,11.70
2023-04-06T11:53:09.202Z,11.77
2023-04-06T11:54:09.173Z,11.80
2023-04-06T11:55:09.159Z,11.77
2023-04-06T11:56:09.176Z,11.77
2023-04-06T11:57:09.150Z,11.78
2023-04-06T11:58:09.130Z,11.86
2023-04-06T11:59:09.139Z,11.87
2023-04-06T12:00:09.121Z,12.00
2023-04-06T12:01:09.107Z,12.04
2023-04-06T12:02:09.080Z,12.03
2023-04-06T12:03:09.141Z,11.99
2023-04-06T12:04:09.053Z,11.86
2023-04-06T12:05:09.027Z,11.69
2023-04-06T12:06:09.010Z,11.51
2023-04-06T12:07:09.013Z,11.48
2023-04-06T12:08:08.982Z,11.44
2023-04-06T12:09:08.971Z,11.19
2023-04-06T12:10:08.965Z,11.22
2023-04-06T12:11:08.955Z,11.29
2023-04-06T12:12:08.935Z,11.33
2023-04-06T12:13:08.926Z,11.41
2023-04-06T12:14:08.913Z,11.54
2023-04-06T12:15:08.912Z,11.68
2023-04-06T12:16:08.953Z,11.75
2023-04-06T12:17:08.900Z,11.73
2023-04-06T12:18:08.901Z,11.68
2023-04-06T12:19:08.840Z,11.57
2023-04-06T12:20:17.996Z,11.51
2023-04-06T12:21:09.849Z,11.45
2023-04-06T12:22:08.805Z,11.40
2023-04-06T12:23:08.799Z,11.33
2023-04-06T12:24:08.800Z,11.35
2023-04-06T12:25:08.760Z,11.27
2023-04-06T12:26:13.160Z,11.23
2023-04-06T12:27:10.624Z,11.19
2023-04-06T12:28:08.725Z,11.19
2023-04-06T12:29:08.716Z,11.07
2023-04-06T12:30:08.703Z,11.18
2023-04-06T12:31:08.786Z,11.25
2023-04-06T12:32:08.683Z,11.23
2023-04-06T12:33:08.820Z,11.30
2023-04-06T12:34:08.645Z,11.36
2023-04-06T12:35:08.639Z,11.41
2023-04-06T12:36:08.624Z,11.47
2023-04-06T12:37:08.621Z,11.48
2023-04-06T12:38:08.596Z,11.54
2023-04-06T12:39:08.589Z,11.62
2023-04-06T12:40:08.564Z,11.60
2023-04-06T12:41:08.566Z,11.57
2023-04-06T12:42:08.538Z,11.47
2023-04-06T12:43:08.532Z,11.29
2023-04-06T12:44:08.543Z,11.27
2023-04-06T12:45:08.499Z,11.36
2023-04-06T12:46:08.495Z,11.43
2023-04-06T12:47:08.611Z,11.52
2023-04-06T12:48:08.516Z,11.55
2023-04-06T12:49:08.514Z,11.68
2023-04-06T12:50:08.461Z,11.72
2023-04-06T12:51:08.435Z,11.62
2023-04-06T12:52:08.412Z,11.66
2023-04-06T12:53:08.400Z,11.77
2023-04-06T12:54:08.381Z,11.84